createdAt,value
2023-04-03T00:00:09.250Z,0.00
2023-04-03T00:01:09.222Z,0.00
2023-04-03T00:02:09.244Z,0.00
2023-04-03T00:03:09.262Z,0.00
2023-04-03T00:04:09.270Z,0.00
2023-04-03T00:05:09.201Z,0.00
2023-04-03T00:06:09.172Z,0.00
2023-04-03T00:07:09.165Z,0.00
2023-04-03T00:08:09.152Z,0.00
2023-04-03T00:09:10.147Z,0.00
2023-04-03T00:10:09.144Z,0.00
2023-04-03T00:11:09.133Z,0.00
2023-04-03T00:12:09.126Z,0.00
2023-04-03T00:13:09.087Z,0.00
2023-04-03T00:14:09.103Z,0.00
2023-04-03T00:15:09.068Z,0.00
2023-04-03T00:16:09.060Z,0.00
2023-04-03T00:17:09.097Z,0.00
2023-04-03T00:18:09.082Z,0.00
2023-04-03T00:19:09.050Z,0.00
2023-04-03T00:20:09.023Z,0.00
2023-04-03T00:21:09.005Z,0.00
2023-04-03T00:22:08.995Z,0.00
2023-04-03T00:23:08.989Z,0.00
2023-04-03T00:24:09.006Z,0.00
2023-04-03T00:25:08.973Z,0.00
2023-04-03T00:26:08.957Z,0.00
2023-04-03T00:27:08.936Z,0.00
2023-04-03T00:28:08.929Z,0.00
2023-04-03T00:29:08.942Z,0.00
2023-04-03T00:30:08.914Z,0.00
2023-04-03T00:31:08.977Z,0.00
2023-04-03T00:32:08.895Z,0.00
2023-04-03T00:33:08.896Z,0.00
2023-04-03T00:34:08.870Z,0.00
2023-04-03T00:35:08.851Z,0.00
2023-04-03T00:36:08.962Z,0.00
2023-04-03T00:37:08.830Z,0.00
2023-04-03T00:38:08.820Z,0.00
2023-04-03T00:39:08.810Z,0.00
2023-04-03T00:40:08.809Z,0.00
2023-04-03T00:41:08.823Z,0.00
2023-04-03T00:42:08.799Z,0.00
2023-04-03T00:43:08.796Z,0.00
2023-04-03T00:44:08.780Z,0.00
2023-04-03T00:45:08.777Z,0.00
2023-04-03T00:46:08.809Z,0.00
2023-04-03T00:47:08.736Z,0.00
2023-04-03T00:48:08.730Z,0.00
2023-04-03T00:49:08.717Z,0.00
2023-04-03T00:50:08.822Z,0.00
2023-04-03T00:51:08.705Z,0.00
2023-04-03T00:52:08.701Z,0.00
2023-04-03T00:53:08.695Z,0.00
2023-04-03T00:54:08.660Z,0.00
2023-04-03T00:55:08.649Z,0.00
2023-04-03T00:56:08.631Z,0.00
2023-04-03T00:57:08.700Z,0.00
2023-04-03T00:58:08.613Z,0.00
2023-04-03T00:59:08.593Z,0.00
2023-04-03T01:00:08.588Z,0.00
2023-04-03T01:01:08.572Z,0.00
2023-04-03T01:02:08.591Z,0.00
2023-04-03T01:03:08.556Z,0.00
2023-04-03T01:04:08.571Z,0.00
2023-04-03T01:05:08.532Z,0.00
2023-04-03T01:06:08.525Z,0.00
2023-04-03T01:07:08.536Z,0.00
2023-04-03T01:08:08.506Z,0.00
2023-04-03T01:09:08.491Z,0.00
2023-04-03T01:10:08.485Z,0.00
2023-04-03T01:11:08.471Z,0.00
2023-04-03T01:12:08.479Z,0.00
2023-04-03T01:13:08.473Z,0.00
2023-04-03T01:14:08.436Z,0.00
2023-04-03T01:15:08.424Z,0.00
2023-04-03T01:16:08.454Z,0.00
2023-04-03T01:17:08.402Z,0.00
2023-04-03T01:18:08.431Z,0.00
2023-04-03T01:19:08.420Z,0.00
2023-04-03T01:20:08.372Z,0.00
2023-04-03T01:21:08.362Z,0.00
2023-04-03T01:22:08.373Z,0.00
2023-04-03T01:23:08.340Z,0.00
2023-04-03T01:24:08.333Z,0.00
2023-04-03T01:25:08.342Z,0.00
2023-04-03T01:26:08.313Z,0.00
2023-04-03T01:27:08.295Z,0.00
2023-04-03T01:28:08.299Z,0.00
2023-04-03T01:29:08.298Z,0.00
2023-04-03T01:30:08.270Z,0.00
2023-04-03T01:31:08.278Z,0.00
2023-04-03T01:32:08.244Z,0.00
2023-04-03T01:33:08.287Z,0.00
2023-04-03T01:34:08.241Z,0.00
2023-04-03T01:35:08.219Z,0.00
2023-04-03T01:36:08.222Z,0.00
2023-04-03T01:37:08.186Z,0.00
2023-04-03T01:38:08.179Z,0.00
2023-04-03T01:39:08.192Z,0.00
2023-04-03T01:40:08.170Z,0.00
2023-04-03T01:41:08.148Z,0.00
2023-04-03T01:42:08.141Z,0.00
2023-04-03T01:43:08.128Z,0.00
2023-04-03T01:44:08.123Z,0.00
2023-04-03T01:45:08.134Z,0.00
2023-04-03T01:46:08.135Z,0.00
2023-04-03T01:47:08.090Z,0.00
2023-04-03T01:48:08.084Z,0.00
2023-04-03T01:49:08.060Z,0.00
2023-04-03T01:50:08.081Z,0.00
2023-04-03T01:51:08.043Z,0.00
2023-04-03T01:52:08.032Z,0.00
2023-04-03T01:53:08.028Z,0.00
2023-04-03T01:54:08.030Z,0.00
2023-04-03T01:55:08.025Z,0.00
2023-04-03T01:56:07.998Z,0.00
2023-04-03T01:57:08.013Z,0.00
2023-04-03T01:58:07.969Z,0.00
2023-04-03T01:59:07.958Z,0.00
2023-04-03T02:00:07.958Z,0.00
2023-04-03T02:01:07.969Z,0.00
2023-04-03T02:02:07.955Z,0.00
2023-04-03T02:03:08.077Z,0.00
2023-04-03T02:04:08.021Z,0.00
2023-04-03T02:05:07.896Z,0.00
2023-04-03T02:06:07.902Z,0.00
2023-04-03T02:07:07.873Z,0.00
2023-04-03T02:08:07.862Z,0.00
2023-04-03T02:09:07.858Z,0.00
2023-04-03T02:10:07.855Z,0.00
2023-04-03T02:11:07.845Z,0.00
2023-04-03T02:12:13.870Z,0.00
2023-04-03T02:13:07.812Z,0.00
2023-04-03T02:14:07.823Z,0.00
2023-04-03T02:15:07.782Z,0.00
2023-04-03T02:16:07.786Z,0.00
2023-04-03T02:17:07.778Z,0.00
2023-04-03T02:18:08.001Z,0.00
2023-04-03T02:19:07.740Z,0.00
2023-04-03T02:20:07.754Z,0.00
2023-04-03T02:21:07.724Z,0.00
2023-04-03T02:22:07.726Z,0.00
2023-04-03T02:23:07.700Z,0.00
2023-04-03T02:24:07.690Z,0.00
2023-04-03T02:25:07.679Z,0.00
2023-04-03T02:26:07.660Z,0.00
2023-04-03T02:27:07.652Z,0.00
2023-04-03T02:28:07.667Z,0.00
2023-04-03T02:29:07.667Z,0.00
2023-04-03T02:30:07.614Z,0.00
2023-04-03T02:31:07.680Z,0.00
2023-04-03T02:32:07.605Z,0.00
2023-04-03T02:33:07.659Z,0.00
2023-04-03T02:34:07.597Z,0.00
2023-04-03T02:35:07.571Z,0.00
2023-04-03T02:36:07.580Z,0.00
2023-04-03T02:37:07.547Z,0.00
2023-04-03T02:38:07.532Z,0.00
2023-04-03T02:39:07.547Z,0.00
2023-04-03T02:40:07.512Z,0.00
2023-04-03T02:41:07.513Z,0.00
2023-04-03T02:42:07.486Z,0.00
2023-04-03T02:43:07.480Z,0.00
2023-04-03T02:44:07.500Z,0.00
2023-04-03T02:45:07.480Z,0.00
2023-04-03T02:46:07.484Z,0.00
2023-04-03T02:47:07.447Z,0.00
2023-04-03T02:48:07.501Z,0.00
2023-04-03T02:49:07.444Z,0.00
2023-04-03T02:50:07.412Z,0.00
2023-04-03T02:51:07.421Z,0.00
2023-04-03T02:52:07.392Z,0.00
2023-04-03T02:53:07.385Z,0.00
2023-04-03T02:54:07.378Z,0.00
2023-04-03T02:55:07.369Z,0.00
2023-04-03T02:56:07.378Z,0.00
2023-04-03T02:57:07.402Z,0.00
2023-04-03T02:58:09.711Z,0.00
2023-04-03T02:59:07.363Z,0.00
2023-04-03T03:00:07.337Z,0.00
2023-04-03T03:01:07.288Z,0.00
2023-04-03T03:02:07.348Z,0.00
2023-04-03T03:03:07.333Z,0.00
2023-04-03T03:04:07.256Z,0.00
2023-04-03T03:05:07.308Z,0.00
2023-04-03T03:06:07.242Z,0.00
2023-04-03T03:07:07.224Z,0.00
2023-04-03T03:08:07.223Z,0.00
2023-04-03T03:09:07.215Z,0.00
2023-04-03T03:10:07.213Z,0.00
2023-04-03T03:11:07.193Z,0.00
2023-04-03T03:12:07.195Z,0.00
2023-04-03T03:13:07.172Z,0.00
2023-04-03T03:14:07.149Z,0.00
2023-04-03T03:15:07.172Z,0.00
2023-04-03T03:16:07.209Z,0.00
2023-04-03T03:17:07.122Z,0.00
2023-04-03T03:18:07.128Z,0.00
2023-04-03T03:19:07.099Z,0.00
2023-04-03T03:20:07.094Z,0.00
2023-04-03T03:21:07.103Z,0.00
2023-04-03T03:22:07.065Z,0.00
2023-04-03T03:23:07.056Z,0.00
2023-04-03T03:24:07.044Z,0.00
2023-04-03T03:25:07.045Z,0.00
2023-04-03T03:26:07.045Z,0.00
2023-04-03T03:27:07.010Z,0.00
2023-04-03T03:28:07.000Z,0.00
2023-04-03T03:29:06.989Z,0.00
2023-04-03T03:30:06.981Z,0.00
2023-04-03T03:31:07.032Z,0.00
2023-04-03T03:32:06.991Z,0.00
2023-04-03T03:33:06.997Z,0.00
2023-04-03T03:34:06.938Z,0.00
2023-04-03T03:35:06.930Z,0.00
2023-04-03T03:36:06.941Z,0.00
2023-04-03T03:37:06.930Z,0.00
2023-04-03T03:38:06.894Z,0.00
2023-04-03T03:39:06.886Z,0.00
2023-04-03T03:40:06.885Z,0.00
2023-04-03T03:41:06.876Z,0.00
2023-04-03T03:42:06.869Z,0.00
2023-04-03T03:43:06.883Z,0.00
2023-04-03T03:44:06.830Z,0.00
2023-04-03T03:45:06.819Z,0.00
2023-04-03T03:46:06.818Z,0.00
2023-04-03T03:47:06.801Z,0.00
2023-04-03T03:48:06.838Z,0.00
2023-04-03T03:49:06.808Z,0.00
2023-04-03T03:50:06.765Z,0.00
2023-04-03T03:51:06.762Z,0.00
2023-04-03T03:52:06.765Z,0.00
2023-04-03T03:53:06.748Z,0.00
2023-04-03T03:54:06.774Z,0.00
2023-04-03T03:55:06.721Z,0.00
2023-04-03T03:56:06.703Z,0.00
2023-04-03T03:57:06.732Z,0.00
2023-04-03T03:58:06.700Z,0.00
2023-04-03T03:59:06.697Z,0.00
2023-04-03T04:00:06.672Z,0.00
2023-04-03T04:01:07.037Z,0.00
2023-04-03T04:02:06.663Z,0.00
2023-04-03T04:03:06.697Z,0.00
2023-04-03T04:04:06.676Z,0.00
2023-04-03T04:05:06.635Z,0.00
2023-04-03T04:06:06.607Z,0.00
2023-04-03T04:07:06.592Z,0.00
2023-04-03T04:08:06.593Z,0.00
2023-04-03T04:09:06.581Z,0.00
2023-04-03T04:10:06.584Z,0.00
2023-04-03T04:11:06.553Z,0.00
2023-04-03T04:12:06.533Z,0.00
2023-04-03T04:13:06.540Z,0.00
2023-04-03T04:14:06.517Z,0.00
2023-04-03T04:15:06.511Z,0.00
2023-04-03T04:16:06.522Z,0.00
2023-04-03T04:17:06.539Z,0.00
2023-04-03T04:18:06.526Z,0.00
2023-04-03T04:19:08.439Z,0.00
2023-04-03T04:20:06.465Z,0.00
2023-04-03T04:21:06.452Z,0.00
2023-04-03T04:22:06.459Z,0.00
2023-04-03T04:23:06.427Z,0.00
2023-04-03T04:24:06.422Z,0.00
2023-04-03T04:25:06.404Z,0.00
2023-04-03T04:26:06.401Z,0.00
2023-04-03T04:27:06.383Z,0.00
2023-04-03T04:28:06.386Z,0.00
2023-04-03T04:29:06.370Z,0.00
2023-04-03T04:30:06.347Z,0.00
2023-04-03T04:31:06.356Z,4.00
2023-04-03T04:32:06.335Z,0.00
2023-04-03T04:33:06.376Z,4.00
2023-04-03T04:34:06.304Z,4.00
2023-04-03T04:35:06.329Z,4.00
2023-04-03T04:36:06.350Z,4.00
2023-04-03T04:37:06.380Z,8.00
2023-04-03T04:38:06.267Z,8.00
2023-04-03T04:39:06.257Z,8.00
2023-04-03T04:40:06.241Z,8.00
2023-04-03T04:41:06.239Z,12.00
2023-04-03T04:42:06.246Z,12.00
2023-04-03T04:43:06.211Z,12.00
2023-04-03T04:44:06.229Z,16.00
2023-04-03T04:45:06.199Z,24.00
2023-04-03T04:46:06.197Z,24.00
2023-04-03T04:47:06.164Z,32.00
2023-04-03T04:48:06.202Z,32.00
2023-04-03T04:49:06.150Z,44.00
2023-04-03T04:50:06.154Z,48.00
2023-04-03T04:51:06.128Z,56.00
2023-04-03T04:52:06.127Z,60.00
2023-04-03T04:53:06.111Z,72.00
2023-04-03T04:54:06.098Z,84.00
2023-04-03T04:55:06.080Z,96.00
2023-04-03T04:56:06.097Z,108.00
2023-04-03T04:57:06.092Z,120.00
2023-04-03T04:58:06.064Z,136.00
2023-04-03T04:59:06.046Z,152.00
2023-04-03T05:00:06.027Z,168.00
2023-04-03T05:01:06.025Z,188.00
2023-04-03T05:02:06.056Z,204.00
2023-04-03T05:03:06.017Z,228.00
2023-04-03T05:04:05.982Z,248.00
2023-04-03T05:05:06.002Z,272.00
2023-04-03T05:06:05.962Z,296.00
2023-04-03T05:07:05.953Z,320.00
2023-04-03T05:08:05.965Z,348.00
2023-04-03T05:09:05.928Z,376.00
2023-04-03T05:10:05.917Z,404.00
2023-04-03T05:11:05.914Z,428.00
2023-04-03T05:12:05.897Z,460.00
2023-04-03T05:13:05.909Z,488.00
2023-04-03T05:14:05.899Z,516.00
2023-04-03T05:15:05.873Z,548.00
2023-04-03T05:16:05.929Z,576.00
2023-04-03T05:17:05.847Z,608.00
2023-04-03T05:18:05.888Z,636.00
2023-04-03T05:19:05.823Z,668.00
2023-04-03T05:20:05.835Z,700.00
2023-04-03T05:21:05.805Z,728.00
2023-04-03T05:22:05.795Z,756.00
2023-04-03T05:23:05.781Z,784.00
2023-04-03T05:24:05.768Z,816.00
2023-04-03T05:25:05.782Z,848.00
2023-04-03T05:26:05.746Z,872.00
2023-04-03T05:27:05.741Z,904.00
2023-04-03T05:28:05.726Z,928.00
2023-04-03T05:29:05.718Z,960.00
2023-04-03T05:30:05.737Z,988.00
2023-04-03T05:31:05.746Z,1016.00
2023-04-03T05:32:05.681Z,1040.00
2023-04-03T05:33:05.707Z,1068.00
2023-04-03T05:34:05.662Z,1092.00
2023-04-03T05:35:05.658Z,1120.00
2023-04-03T05:36:05.724Z,1144.00
2023-04-03T05:37:05.650Z,1168.00
2023-04-03T05:38:05.619Z,1196.00
2023-04-03T05:39:05.699Z,1216.00
2023-04-03T05:40:05.647Z,1240.00
2023-04-03T05:41:05.586Z,1264.00
2023-04-03T05:42:05.595Z,1292.00
2023-04-03T05:43:05.568Z,1308.00
2023-04-03T05:44:05.552Z,1332.00
2023-04-03T05:45:05.543Z,1352.00
2023-04-03T05:46:05.576Z,1376.00
2023-04-03T05:47:05.519Z,1396.00
2023-04-03T05:48:05.534Z,1416.00
2023-04-03T05:49:05.506Z,1436.00
2023-04-03T05:50:05.490Z,1456.00
2023-04-03T05:51:05.471Z,1472.00
2023-04-03T05:52:05.502Z,1496.00
2023-04-03T05:53:05.463Z,1512.00
2023-04-03T05:54:05.435Z,1532.00
2023-04-03T05:55:05.454Z,1548.00
2023-04-03T05:56:05.416Z,1564.00
2023-04-03T05:57:05.442Z,1580.00
2023-04-03T05:58:05.422Z,1600.00
2023-04-03T05:59:05.390Z,1616.00
2023-04-03T06:00:05.380Z,1632.00
2023-04-03T06:01:05.371Z,1648.00
2023-04-03T06:02:05.350Z,1660.00
2023-04-03T06:03:05.542Z,1680.00
2023-04-03T06:04:05.449Z,1692.00
2023-04-03T06:05:05.385Z,1708.00
2023-04-03T06:06:05.312Z,1720.00
2023-04-03T06:07:05.306Z,1732.00
2023-04-03T06:08:05.296Z,1748.00
2023-04-03T06:09:05.306Z,1756.00
2023-04-03T06:10:05.282Z,1776.00
2023-04-03T06:11:05.267Z,1784.00
2023-04-03T06:12:05.249Z,1800.00
2023-04-03T06:13:05.248Z,1812.00
2023-04-03T06:14:05.229Z,1820.00
2023-04-03T06:15:05.241Z,1832.00
2023-04-03T06:16:05.204Z,1848.00
2023-04-03T06:17:05.229Z,1856.00
2023-04-03T06:18:05.218Z,1868.00
2023-04-03T06:19:05.174Z,1880.00
2023-04-03T06:20:05.165Z,1888.00
2023-04-03T06:21:05.178Z,1904.00
2023-04-03T06:22:05.146Z,1912.00
2023-04-03T06:23:06.732Z,1924.00
2023-04-03T06:24:05.121Z,1936.00
2023-04-03T06:25:05.124Z,1944.00
2023-04-03T06:26:05.101Z,1952.00
2023-04-03T06:27:05.119Z,1964.00
2023-04-03T06:28:05.078Z,1976.00
2023-04-03T06:29:05.076Z,1988.00
2023-04-03T06:30:05.060Z,1996.00
2023-04-03T06:31:05.232Z,2004.00
2023-04-03T06:32:05.036Z,2012.00
2023-04-03T06:33:05.057Z,2024.00
2023-04-03T06:34:06.232Z,2032.00
2023-04-03T06:35:05.007Z,2040.00
2023-04-03T06:36:05.048Z,2048.00
2023-04-03T06:37:04.995Z,2056.00
2023-04-03T06:38:04.983Z,2064.00
2023-04-03T06:39:04.962Z,2072.00
2023-04-03T06:40:04.982Z,2080.00
2023-04-03T06:41:04.945Z,2088.00
2023-04-03T06:42:04.938Z,2096.00
2023-04-03T06:43:04.921Z,2100.00
2023-04-03T06:44:04.910Z,2108.00
2023-04-03T06:45:04.962Z,2116.00
2023-04-03T06:46:04.938Z,2124.00
2023-04-03T06:47:04.879Z,2132.00
2023-04-03T06:48:04.975Z,2136.00
2023-04-03T06:49:04.856Z,2144.00
2023-04-03T06:50:04.922Z,2152.00
2023-04-03T06:51:04.865Z,2160.00
2023-04-03T06:52:04.834Z,2164.00
2023-04-03T06:53:04.828Z,2168.00
2023-04-03T06:54:04.804Z,2176.00
2023-04-03T06:55:04.793Z,2184.00
2023-04-03T06:56:04.784Z,2192.00
2023-04-03T06:57:04.886Z,2192.00
2023-04-03T06:58:04.993Z,2200.00
2023-04-03T06:59:04.756Z,2208.00
2023-04-03T07:00:04.740Z,2212.00
2023-04-03T07:01:04.724Z,2216.00
2023-04-03T07:02:04.875Z,2220.00
2023-04-03T07:03:04.742Z,2224.00
2023-04-03T07:04:04.758Z,2236.00
2023-04-03T07:05:04.715Z,2240.00
2023-04-03T07:06:04.703Z,2240.00
2023-04-03T07:07:04.662Z,2252.00
2023-04-03T07:08:04.693Z,2256.00
2023-04-03T07:09:04.641Z,2264.00
2023-04-03T07:10:04.659Z,2264.00
2023-04-03T07:11:04.623Z,2268.00
2023-04-03T07:12:04.653Z,2276.00
2023-04-03T07:13:04.607Z,2284.00
2023-04-03T07:14:04.611Z,2292.00
2023-04-03T07:15:04.579Z,2296.00
2023-04-03T07:16:04.607Z,2304.00
2023-04-03T07:17:04.557Z,2312.00
2023-04-03T07:18:04.572Z,2320.00
2023-04-03T07:19:04.540Z,2316.00
2023-04-03T07:20:04.541Z,2324.00
2023-04-03T07:21:04.531Z,2332.00
2023-04-03T07:22:04.540Z,2340.00
2023-04-03T07:23:04.526Z,2344.00
2023-04-03T07:24:04.479Z,2348.00
2023-04-03T07:25:04.469Z,2360.00
2023-04-03T07:26:04.471Z,2364.00
2023-04-03T07:27:04.473Z,2368.00
2023-04-03T07:28:04.444Z,2372.00
2023-04-03T07:29:04.438Z,2380.00
2023-04-03T07:30:04.436Z,2384.00
2023-04-03T07:31:04.407Z,2388.00
2023-04-03T07:32:04.529Z,2396.00
2023-04-03T07:33:04.440Z,2404.00
2023-04-03T07:34:04.386Z,2412.00
2023-04-03T07:35:04.369Z,2416.00
2023-04-03T07:36:04.376Z,2416.00
2023-04-03T07:37:04.340Z,2424.00
2023-04-03T07:38:04.364Z,2428.00
2023-04-03T07:39:04.322Z,2432.00
2023-04-03T07:40:04.325Z,2440.00
2023-04-03T07:41:04.311Z,2444.00
2023-04-03T07:42:04.299Z,2448.00
2023-04-03T07:43:04.325Z,2456.00
2023-04-03T07:44:04.277Z,2460.00
2023-04-03T07:45:04.260Z,2464.00
2023-04-03T07:46:04.275Z,2468.00
2023-04-03T07:47:04.250Z,2472.00
2023-04-03T07:48:04.358Z,2476.00
2023-04-03T07:49:04.249Z,2480.00
2023-04-03T07:50:04.218Z,2484.00
2023-04-03T07:51:04.202Z,2492.00
2023-04-03T07:52:04.200Z,2500.00
2023-04-03T07:53:04.182Z,2512.00
2023-04-03T07:54:04.188Z,2516.00
2023-04-03T07:55:04.157Z,2512.00
2023-04-03T07:56:04.149Z,2520.00
2023-04-03T07:57:04.196Z,2528.00
2023-04-03T07:58:04.123Z,2536.00
2023-04-03T07:59:04.149Z,2536.00
2023-04-03T08:00:04.135Z,2540.00
2023-04-03T08:01:04.087Z,2548.00
2023-04-03T08:02:04.084Z,2552.00
2023-04-03T08:03:04.107Z,2560.00
2023-04-03T08:04:04.120Z,2564.00
2023-04-03T08:05:04.082Z,2572.00
2023-04-03T08:06:04.465Z,2576.00
2023-04-03T08:07:04.037Z,2580.00
2023-04-03T08:08:04.018Z,2584.00
2023-04-03T08:09:04.021Z,2588.00
2023-04-03T08:10:03.997Z,2600.00
2023-04-03T08:11:04.004Z,2600.00
2023-04-03T08:12:10.825Z,2604.00
2023-04-03T08:13:03.980Z,2608.00
2023-04-03T08:14:03.975Z,2616.00
2023-04-03T08:15:03.948Z,2620.00
2023-04-03T08:16:03.931Z,2628.00
2023-04-03T08:17:04.015Z,2636.00
2023-04-03T08:18:03.957Z,2644.00
2023-04-03T08:19:07.123Z,2652.00
2023-04-03T08:20:03.892Z,2660.00
2023-04-03T08:21:03.876Z,2668.00
2023-04-03T08:22:03.899Z,2672.00
2023-04-03T08:23:03.853Z,2676.00
2023-04-03T08:24:03.857Z,2684.00
2023-04-03T08:25:03.831Z,2692.00
2023-04-03T08:26:03.821Z,2700.00
2023-04-03T08:27:03.814Z,2708.00
2023-04-03T08:28:03.819Z,2712.00
2023-04-03T08:29:03.791Z,2724.00
2023-04-03T08:30:03.773Z,2740.00
2023-04-03T08:31:03.806Z,2740.00
2023-04-03T08:32:03.756Z,2744.00
2023-04-03T08:33:03.900Z,2752.00
2023-04-03T08:34:03.734Z,2768.00
2023-04-03T08:35:03.718Z,2768.00
2023-04-03T08:36:03.768Z,2772.00
2023-04-03T08:37:03.695Z,2784.00
2023-04-03T08:38:03.686Z,2792.00
2023-04-03T08:39:03.701Z,2800.00
2023-04-03T08:40:03.683Z,2804.00
2023-04-03T08:41:03.663Z,2808.00
2023-04-03T08:42:03.644Z,2816.00
2023-04-03T08:43:03.639Z,2832.00
2023-04-03T08:44:03.639Z,2844.00
2023-04-03T08:45:03.636Z,2844.00
2023-04-03T08:46:03.674Z,2856.00
2023-04-03T08:47:03.596Z,2864.00
2023-04-03T08:48:03.639Z,2880.00
2023-04-03T08:49:03.636Z,2892.00
2023-04-03T08:50:03.559Z,2896.00
2023-04-03T08:51:03.894Z,2908.00
2023-04-03T08:52:03.541Z,2916.00
2023-04-03T08:53:03.528Z,2928.00
2023-04-03T08:54:03.517Z,2932.00
2023-04-03T08:55:03.502Z,2944.00
2023-04-03T08:56:03.499Z,2948.00
2023-04-03T08:57:03.584Z,2960.00
2023-04-03T08:58:03.490Z,2968.00
2023-04-03T08:59:03.489Z,2976.00
2023-04-03T09:00:03.455Z,2988.00
2023-04-03T09:01:03.458Z,2992.00
2023-04-03T09:02:03.546Z,3004.00
2023-04-03T09:03:03.466Z,3004.00
2023-04-03T09:04:03.490Z,3008.00
2023-04-03T09:05:03.403Z,3016.00
2023-04-03T09:06:03.408Z,3020.00
2023-04-03T09:07:03.401Z,3024.00
2023-04-03T09:08:03.372Z,3032.00
2023-04-03T09:09:03.355Z,3036.00
2023-04-03T09:10:03.345Z,3048.00
2023-04-03T09:11:03.346Z,3060.00
2023-04-03T09:12:03.381Z,3076.00
2023-04-03T09:13:03.598Z,3080.00
2023-04-03T09:14:03.385Z,3088.00
2023-04-03T09:15:03.363Z,3096.00
2023-04-03T09:16:03.560Z,3108.00
2023-04-03T09:17:03.363Z,3120.00
2023-04-03T09:18:03.316Z,3160.00
2023-04-03T09:19:03.294Z,3228.00
2023-04-03T09:20:03.263Z,3308.00
2023-04-03T09:21:03.242Z,3336.00
2023-04-03T09:22:03.239Z,3356.00
2023-04-03T09:23:03.200Z,3360.00
2023-04-03T09:24:03.187Z,3364.00
2023-04-03T09:25:03.302Z,3376.00
2023-04-03T09:26:03.182Z,3388.00
2023-04-03T09:27:03.191Z,3404.00
2023-04-03T09:28:03.144Z,3420.00
2023-04-03T09:29:03.137Z,3444.00
2023-04-03T09:30:03.125Z,3444.00
2023-04-03T09:31:03.138Z,3456.00
2023-04-03T09:32:03.155Z,3464.00
2023-04-03T09:33:03.335Z,3484.00
2023-04-03T09:34:03.098Z,3492.00
2023-04-03T09:35:09.539Z,3508.00
2023-04-03T09:36:03.095Z,3524.00
2023-04-03T09:37:03.058Z,3548.00
2023-04-03T09:38:03.046Z,3552.00
2023-04-03T09:39:03.051Z,3560.00
2023-04-03T09:40:03.021Z,3568.00
2023-04-03T09:41:03.008Z,3604.00
2023-04-03T09:42:02.996Z,3624.00
2023-04-03T09:43:02.992Z,3644.00
2023-04-03T09:44:02.983Z,3664.00
2023-04-03T09:45:02.986Z,3684.00
2023-04-03T09:46:02.970Z,3716.00
2023-04-03T09:47:03.009Z,3764.00
2023-04-03T09:48:02.976Z,3816.00
2023-04-03T09:49:08.996Z,3868.00
2023-04-03T09:50:02.942Z,3928.00
2023-04-03T09:51:02.932Z,4004.00
2023-04-03T09:52:02.994Z,4080.00
2023-04-03T09:53:02.912Z,4172.00
2023-04-03T09:54:02.970Z,4256.00
2023-04-03T09:55:02.888Z,4356.00
2023-04-03T09:56:02.861Z,4464.00
2023-04-03T09:57:02.863Z,4576.00
2023-04-03T09:58:02.842Z,4696.00
2023-04-03T09:59:02.818Z,4824.00
2023-04-03T10:00:02.841Z,4956.00
2023-04-03T10:01:02.844Z,5100.00
2023-04-03T10:02:02.799Z,5248.00
2023-04-03T10:03:02.798Z,5424.00
2023-04-03T10:04:02.796Z,5560.00
2023-04-03T10:06:02.796Z,5900.00
2023-04-03T10:07:02.927Z,6064.00
2023-04-03T10:08:03.920Z,6200.00
2023-04-03T10:09:02.717Z,6348.00
2023-04-03T10:10:02.718Z,6512.00
2023-04-03T10:11:02.709Z,6656.00
2023-04-03T10:12:02.701Z,6836.00
2023-04-03T10:13:02.727Z,6976.00
2023-04-03T10:14:02.760Z,7116.00
2023-04-03T10:15:02.660Z,7256.00
2023-04-03T10:16:02.673Z,7404.00
2023-04-03T10:17:02.814Z,7552.00
2023-04-03T10:18:11.421Z,7720.00
2023-04-03T10:19:02.599Z,7852.00
2023-04-03T10:20:02.586Z,8052.00
2023-04-03T10:21:02.569Z,8256.00
2023-04-03T10:22:02.587Z,8560.00
2023-04-03T10:23:02.548Z,9884.00
2023-04-03T10:24:02.549Z,26816.00
2023-04-03T10:25:02.614Z,48736.00
2023-04-03T10:26:02.531Z,53312.00
2023-04-03T10:27:02.535Z,54368.00
2023-04-03T10:28:03.415Z,54528.00
2023-04-03T10:29:02.490Z,55008.00
2023-04-03T10:30:02.479Z,55520.00
2023-04-03T10:31:02.509Z,55616.00
2023-04-03T10:32:02.508Z,55840.00
2023-04-03T10:33:02.460Z,55008.00
2023-04-03T10:34:02.453Z,53792.00
2023-04-03T10:35:05.167Z,53344.00
2023-04-03T10:36:02.473Z,53920.00
2023-04-03T10:37:02.418Z,54048.00
2023-04-03T10:38:02.398Z,53856.00
2023-04-03T10:39:02.378Z,53408.00
2023-04-03T10:40:02.369Z,53152.00
2023-04-03T10:41:02.352Z,53312.00
2023-04-03T10:42:15.674Z,53440.00
2023-04-03T10:43:02.360Z,54112.00
2023-04-03T10:44:02.343Z,53440.00
2023-04-03T10:45:02.338Z,53408.00
2023-04-03T10:46:02.335Z,53344.00
2023-04-03T10:47:02.283Z,53344.00
2023-04-03T10:48:02.365Z,53760.00
2023-04-03T10:49:02.261Z,54048.00
2023-04-03T10:50:02.298Z,54464.00
2023-04-03T10:51:02.246Z,55008.00
2023-04-03T10:52:02.234Z,54528.00
2023-04-03T10:53:02.314Z,54496.00
2023-04-03T10:54:02.209Z,54400.00
2023-04-03T10:55:02.201Z,54080.00
2023-04-03T10:56:02.194Z,53536.00
2023-04-03T10:57:11.949Z,52672.00
2023-04-03T10:58:02.284Z,52192.00
2023-04-03T10:59:02.203Z,26560.00
2023-04-03T11:00:02.159Z,32320.00
2023-04-03T11:01:02.266Z,56224.00
2023-04-03T11:02:02.202Z,53376.00
2023-04-03T11:03:02.185Z,51488.00
2023-04-03T11:04:02.312Z,53376.00
2023-04-03T11:05:02.265Z,53728.00
2023-04-03T11:06:02.091Z,53440.00
2023-04-03T11:07:02.080Z,53440.00
2023-04-03T11:08:02.119Z,54816.00
2023-04-03T11:09:02.056Z,55584.00
2023-04-03T11:10:02.062Z,55648.00
2023-04-03T11:11:02.053Z,56064.00
2023-04-03T11:12:02.023Z,56096.00
2023-04-03T11:13:02.089Z,55776.00
2023-04-03T11:14:02.004Z,55040.00
2023-04-03T11:15:02.009Z,56096.00
2023-04-03T11:16:02.007Z,56992.00
2023-04-03T11:17:02.063Z,57984.00
2023-04-03T11:18:02.008Z,13308.00
2023-04-03T11:19:01.997Z,60288.00
2023-04-03T11:20:01.965Z,60640.00
2023-04-03T11:21:01.933Z,61248.00
2023-04-03T11:22:01.947Z,60992.00
2023-04-03T11:23:01.946Z,61120.00
2023-04-03T11:24:01.898Z,61632.00
2023-04-03T11:25:01.892Z,63008.00
2023-04-03T11:26:01.895Z,63008.00
2023-04-03T11:27:01.868Z,61536.00
2023-04-03T11:28:01.855Z,59968.00
2023-04-03T11:29:01.854Z,60512.00
2023-04-03T11:30:01.827Z,60288.00
2023-04-03T11:31:02.014Z,59808.00
2023-04-03T11:32:01.832Z,58688.00
2023-04-03T11:33:01.932Z,58784.00
2023-04-03T11:34:01.794Z,59104.00
2023-04-03T11:35:01.773Z,58144.00
2023-04-03T11:36:05.353Z,57824.00
2023-04-03T11:37:01.832Z,59936.00
2023-04-03T11:38:01.762Z,62368.00
2023-04-03T11:39:01.820Z,64096.00
2023-04-03T11:40:01.714Z,63424.00
2023-04-03T11:41:01.716Z,24992.00
2023-04-03T11:42:12.584Z,62432.00
2023-04-03T11:43:01.709Z,67008.00
2023-04-03T11:44:01.704Z,68320.00
2023-04-03T11:45:01.668Z,68320.00
2023-04-03T11:46:01.665Z,67712.00
2023-04-03T11:47:01.761Z,37600.00
2023-04-03T11:48:09.933Z,19296.00
2023-04-03T11:49:01.656Z,14752.00
2023-04-03T11:50:01.714Z,38752.00
2023-04-03T11:51:01.603Z,72736.00
2023-04-03T11:52:01.592Z,14404.00
2023-04-03T11:53:01.588Z,60448.00
2023-04-03T11:54:01.653Z,47072.00
2023-04-03T11:55:01.556Z,65984.00
2023-04-03T11:56:01.619Z,66720.00
2023-04-03T11:57:01.553Z,67296.00
2023-04-03T11:58:01.521Z,70720.00
2023-04-03T11:59:01.507Z,72736.00
2023-04-03T12:00:01.565Z,74144.00
2023-04-03T12:01:01.482Z,74752.00
2023-04-03T12:02:01.491Z,76544.00
2023-04-03T12:03:01.593Z,26624.00
2023-04-03T12:04:01.517Z,35968.00
2023-04-03T12:05:01.474Z,25056.00
2023-04-03T12:06:01.573Z,26432.00
2023-04-03T12:07:01.423Z,25888.00
2023-04-03T12:08:01.406Z,69152.00
2023-04-03T12:09:01.425Z,65600.00
2023-04-03T12:10:01.445Z,63968.00
2023-04-03T12:11:01.440Z,64928.00
2023-04-03T12:12:01.374Z,65056.00
2023-04-03T12:13:01.427Z,64768.00
2023-04-03T12:14:01.374Z,64256.00
2023-04-03T12:15:01.369Z,51712.00
2023-04-03T12:16:01.324Z,62880.00
2023-04-03T12:17:01.343Z,62112.00
2023-04-03T12:18:01.353Z,62432.00
2023-04-03T12:19:01.413Z,60928.00
2023-04-03T12:20:01.286Z,59232.00
2023-04-03T12:21:01.389Z,59648.00
2023-04-03T12:22:01.320Z,60736.00
2023-04-03T12:23:01.252Z,61408.00
2023-04-03T12:24:01.312Z,61760.00
2023-04-03T12:25:01.254Z,62848.00
2023-04-03T12:26:01.249Z,63328.00
2023-04-03T12:27:01.221Z,64352.00
2023-04-03T12:28:01.230Z,66816.00
2023-04-03T12:29:01.206Z,70208.00
2023-04-03T12:30:01.199Z,72256.00